createdAt,value
2022-08-23T00:00:59.522Z,100231.31
2022-08-23T00:04:07.763Z,100234.13
2022-08-23T00:07:12.009Z,100230.47
2022-08-23T00:10:15.964Z,100240.25
2022-08-23T00:13:17.391Z,100227.34
2022-08-23T00:16:18.894Z,100238.22
2022-08-23T00:19:22.823Z,100227.44
2022-08-23T00:22:24.344Z,100234.66
2022-08-23T00:25:25.805Z,100235.19
2022-08-23T00:28:27.250Z,100227.41
2022-08-23T00:31:28.982Z,100220.19
2022-08-23T00:34:30.575Z,100223.16
2022-08-23T00:37:32.907Z,100215.63
2022-08-23T00:40:34.356Z,100221.31
2022-08-23T00:43:57.963Z,100220.47
2022-08-23T00:47:18.197Z,100219.28
2022-08-23T00:50:32.062Z,100216.56
2022-08-23T00:53:38.811Z,100220.53
2022-08-23T00:56:40.874Z,100226.00
2022-08-23T00:59:42.663Z,100227.59
2022-08-23T01:02:47.462Z,100222.16
2022-08-23T01:05:55.596Z,100229.13
2022-08-23T01:09:01.259Z,100217.19
2022-08-23T01:12:16.328Z,100222.88
2022-08-23T01:15:32.150Z,100219.75
2022-08-23T01:18:34.330Z,100231.59
2022-08-23T01:21:45.372Z,100223.47
2022-08-23T01:25:06.052Z,100226.16
2022-08-23T01:28:12.167Z,100227.84
2022-08-23T01:31:15.610Z,100237.47
2022-08-23T01:34:18.261Z,100234.09
2022-08-23T01:37:21.126Z,100236.31
2022-08-23T01:40:23.558Z,100234.44
2022-08-23T01:43:25.151Z,100244.63
2022-08-23T01:46:28.890Z,100226.94
2022-08-23T01:49:30.846Z,100232.31
2022-08-23T01:52:32.365Z,100238.91
2022-08-23T01:55:35.480Z,100234.22
2022-08-23T01:58:37.411Z,100232.13
2022-08-23T02:01:39.211Z,100228.00
2022-08-23T02:04:40.714Z,100230.81
2022-08-23T02:07:42.994Z,100231.44
2022-08-23T02:10:44.686Z,100232.94
2022-08-23T02:13:46.354Z,100227.06
2022-08-23T02:17:02.820Z,100225.38
2022-08-23T02:20:07.654Z,100236.38
2022-08-23T02:23:09.218Z,100243.44
2022-08-23T02:26:10.765Z,100245.16
2022-08-23T02:29:14.590Z,100254.44
2022-08-23T02:32:19.506Z,100251.28
2022-08-23T02:35:23.069Z,100261.16
2022-08-23T02:38:25.344Z,100255.94
2022-08-23T02:41:27.058Z,100245.72
2022-08-23T02:44:31.192Z,100253.78
2022-08-23T02:47:32.720Z,100256.69
2022-08-23T02:50:46.798Z,100260.25
2022-08-23T02:53:48.651Z,100260.59
2022-08-23T02:56:52.667Z,100260.59
2022-08-23T02:59:55.114Z,100258.81
2022-08-23T03:02:57.327Z,100263.81
2022-08-23T03:06:25.696Z,100262.38
2022-08-23T03:09:21.857Z,100265.06
2022-08-23T03:12:24.356Z,100265.53
2022-08-23T03:15:29.231Z,100265.06
2022-08-23T03:18:30.746Z,100268.47
2022-08-23T03:21:35.939Z,100273.75
2022-08-23T03:24:37.727Z,100268.00
2022-08-23T03:27:44.866Z,100278.16
2022-08-23T03:30:47.198Z,100275.59
2022-08-23T03:33:49.007Z,100285.34
2022-08-23T03:36:51.789Z,100283.41
2022-08-23T03:39:53.923Z,100284.00
2022-08-23T03:42:55.706Z,100288.53
2022-08-23T03:45:59.799Z,100287.66
2022-08-23T03:49:03.392Z,100279.88
2022-08-23T03:52:15.685Z,100279.91
2022-08-23T03:55:17.442Z,100294.66
2022-08-23T03:58:23.455Z,100298.31
2022-08-23T04:01:28.646Z,100299.16
2022-08-23T04:04:31.093Z,100299.53
2022-08-23T04:08:08.595Z,100306.09
2022-08-23T04:11:12.107Z,100302.44
2022-08-23T04:14:18.525Z,100307.81
2022-08-23T04:17:21.482Z,100312.31
2022-08-23T04:20:23.722Z,100317.44
2022-08-23T04:23:30.285Z,100316.34
2022-08-23T04:26:32.569Z,100321.97
2022-08-23T04:29:34.808Z,100317.44
2022-08-23T04:32:39.707Z,100320.84
2022-08-23T04:35:41.439Z,100326.84
2022-08-23T04:38:43.867Z,100334.13
2022-08-23T04:42:06.457Z,100329.22
2022-08-23T04:45:09.396Z,100329.72
2022-08-23T04:48:13.790Z,100326.28
2022-08-23T04:51:21.602Z,100331.63
2022-08-23T04:54:24.470Z,100329.72
2022-08-23T04:57:44.718Z,100339.50
2022-08-23T05:00:51.841Z,100353.06
2022-08-23T05:03:58.361Z,100347.72
2022-08-23T05:07:01.345Z,100353.75
2022-08-23T05:10:05.348Z,100357.28
2022-08-23T05:13:06.837Z,100362.03
2022-08-23T05:16:08.391Z,100363.75
2022-08-23T05:19:14.600Z,100370.94
2022-08-23T05:22:18.885Z,100378.59
2022-08-23T05:25:49.523Z,100375.78
2022-08-23T05:29:04.696Z,100382.63
2022-08-23T05:32:12.821Z,100386.31
2022-08-23T05:35:14.329Z,100386.78
2022-08-23T05:38:20.825Z,100388.22
2022-08-23T05:41:23.139Z,100393.50
2022-08-23T05:44:36.449Z,100387.41
2022-08-23T05:47:39.478Z,100391.69
2022-08-23T05:50:57.209Z,100396.56
2022-08-23T05:54:04.015Z,100400.22
2022-08-23T05:57:05.845Z,100397.16
2022-08-23T06:00:12.273Z,100401.69
2022-08-23T06:03:20.246Z,100404.84
2022-08-23T06:06:22.337Z,100409.50
2022-08-23T06:09:37.863Z,100410.97
2022-08-23T06:12:40.766Z,100411.34
2022-08-23T06:15:44.082Z,100413.41
2022-08-23T06:18:47.145Z,100411.19
2022-08-23T06:22:18.717Z,100419.22
2022-08-23T06:25:20.234Z,100421.78
2022-08-23T06:28:32.031Z,100425.56
2022-08-23T06:31:46.771Z,100428.13
2022-08-23T06:34:51.450Z,100423.59
2022-08-23T06:38:19.698Z,100425.75
2022-08-23T06:41:24.639Z,100435.38
2022-08-23T06:44:41.704Z,100436.31
2022-08-23T06:48:00.160Z,100428.25
2022-08-23T06:51:02.000Z,100435.78
2022-08-23T06:54:31.317Z,100441.97
2022-08-23T06:57:42.818Z,100448.75
2022-08-23T07:01:44.081Z,100439.78
2022-08-23T07:04:53.887Z,100445.78
2022-08-23T07:08:13.375Z,100444.94
2022-08-23T07:11:14.977Z,100444.44
2022-08-23T07:14:19.475Z,100446.16
2022-08-23T07:17:20.966Z,100448.69
2022-08-23T07:20:23.316Z,100446.72
2022-08-23T07:23:25.954Z,100438.56
2022-08-23T07:26:27.806Z,100445.47
2022-08-23T07:29:31.012Z,100451.03
2022-08-23T07:32:33.090Z,100448.03
2022-08-23T07:35:49.778Z,100453.94
2022-08-23T07:38:51.794Z,100450.44
2022-08-23T07:41:53.951Z,100453.88
2022-08-23T07:44:56.301Z,100445.38
2022-08-23T07:48:01.900Z,100458.69
2022-08-23T07:51:11.669Z,100453.59
2022-08-23T07:54:14.508Z,100465.44
2022-08-23T07:57:27.378Z,100465.72
2022-08-23T08:00:41.537Z,100463.16
2022-08-23T08:04:15.865Z,100471.94
2022-08-23T08:07:21.589Z,100469.66
2022-08-23T08:10:31.562Z,100478.44
2022-08-23T08:13:33.126Z,100472.06
2022-08-23T08:16:38.237Z,100475.63
2022-08-23T08:19:41.579Z,100476.56
2022-08-23T08:23:11.688Z,100479.13
2022-08-23T08:26:31.724Z,100479.94
2022-08-23T08:29:34.774Z,100483.91
2022-08-23T08:32:37.382Z,100482.28
2022-08-23T08:35:38.981Z,100479.09
2022-08-23T08:38:48.412Z,100476.78
2022-08-23T08:42:23.487Z,100473.78
2022-08-23T08:45:32.495Z,100478.53
2022-08-23T08:48:41.893Z,100480.66
2022-08-23T08:51:53.330Z,100482.97
2022-08-23T08:55:02.467Z,100488.88
2022-08-23T08:58:06.889Z,100484.22
2022-08-23T09:01:08.950Z,100477.56
2022-08-23T09:04:10.994Z,100474.94
2022-08-23T09:07:41.252Z,100474.94
2022-08-23T09:11:04.286Z,100474.81
2022-08-23T09:14:49.606Z,100473.63
2022-08-23T09:17:57.251Z,100466.41
2022-08-23T09:21:01.798Z,100473.13
2022-08-23T09:24:04.892Z,100466.44
2022-08-23T09:27:35.825Z,100469.69
2022-08-23T09:30:56.202Z,100468.91
2022-08-23T09:33:59.718Z,100476.28
2022-08-23T09:37:16.766Z,100478.41
2022-08-23T09:40:38.950Z,100474.19
2022-08-23T09:43:47.097Z,100468.88
2022-08-23T09:46:50.042Z,100467.00
2022-08-23T09:49:54.538Z,100470.16
2022-08-23T09:53:08.157Z,100469.94
2022-08-23T09:56:15.049Z,100458.97
2022-08-23T09:59:26.515Z,100460.56
2022-08-23T10:02:34.479Z,100455.53
2022-08-23T10:05:57.744Z,100463.09
2022-08-23T10:09:05.312Z,100465.13
2022-08-23T10:12:09.222Z,100451.72
2022-08-23T10:15:13.316Z,100456.31
2022-08-23T10:18:27.525Z,100449.66
2022-08-23T10:21:41.101Z,100451.88
2022-08-23T10:25:00.448Z,100442.06
2022-08-23T10:28:39.361Z,100437.81
2022-08-23T10:32:03.604Z,100429.31
2022-08-23T10:35:26.693Z,100423.34
2022-08-23T10:38:41.205Z,100427.78
2022-08-23T10:41:46.911Z,100419.91
2022-08-23T10:45:07.130Z,100417.34
2022-08-23T10:48:28.642Z,100417.94
2022-08-23T10:51:36.251Z,100415.03
2022-08-23T10:55:05.868Z,100405.84
2022-08-23T10:58:21.155Z,100413.47
2022-08-23T11:01:28.902Z,100403.75
2022-08-23T11:04:53.392Z,100407.88
2022-08-23T11:08:09.267Z,100402.84
2022-08-23T11:11:50.168Z,100403.63
2022-08-23T11:15:07.406Z,100399.50
2022-08-23T11:18:37.886Z,100391.66
2022-08-23T11:21:44.630Z,100390.63
2022-08-23T11:25:05.557Z,100389.03
2022-08-23T11:28:25.831Z,100390.13
2022-08-23T11:31:42.894Z,100388.97
2022-08-23T11:35:05.620Z,100387.38
2022-08-23T11:38:08.299Z,100381.34
2022-08-23T11:41:32.391Z,100382.59
2022-08-23T11:44:48.154Z,100383.44
2022-08-23T11:48:24.221Z,100380.81
2022-08-23T11:51:55.697Z,100383.38
2022-08-23T11:55:22.130Z,100378.66
2022-08-23T11:58:51.884Z,100382.50
2022-08-23T12:01:54.353Z,100375.41
2022-08-23T12:04:59.708Z,100379.59
2022-08-23T12:08:01.429Z,100370.63
2022-08-23T12:11:09.041Z,100367.31
2022-08-23T12:14:32.256Z,100360.59
2022-08-23T12:17:40.473Z,100357.38
2022-08-23T12:20:44.732Z,100356.22
2022-08-23T12:23:53.854Z,100361.22
2022-08-23T12:27:09.108Z,100363.03
2022-08-23T12:30:22.327Z,100359.06
2022-08-23T12:33:29.923Z,100359.56
2022-08-23T12:36:57.830Z,100360.00
2022-08-23T12:40:02.235Z,100360.03
2022-08-23T12:43:23.430Z,100355.72
2022-08-23T12:46:34.884Z,100348.94
2022-08-23T12:49:36.384Z,100353.34
2022-08-23T12:52:38.493Z,100350.94
2022-08-23T12:55:44.026Z,100352.09
2022-08-23T12:58:52.073Z,100343.41
2022-08-23T13:01:54.483Z,100342.25
2022-08-23T13:05:03.813Z,100342.66
2022-08-23T13:08:13.805Z,100344.88
2022-08-23T13:11:19.818Z,100338.41
2022-08-23T13:14:42.298Z,100333.63
2022-08-23T13:17:43.717Z,100338.31
2022-08-23T13:20:45.180Z,100324.13
2022-08-23T13:23:47.880Z,100327.53
2022-08-23T13:26:49.652Z,100329.56
2022-08-23T13:29:52.472Z,100320.22
2022-08-23T13:33:09.141Z,100318.94
2022-08-23T13:36:19.105Z,100324.03
2022-08-23T13:39:22.923Z,100325.63
2022-08-23T13:42:38.178Z,100328.97
2022-08-23T13:45:49.986Z,100321.81
2022-08-23T13:49:00.210Z,100321.81
2022-08-23T13:55:24.055Z,100314.22
2022-08-23T13:58:32.110Z,100310.06
2022-08-23T14:01:33.839Z,100309.22
2022-08-23T14:04:35.550Z,100313.38
2022-08-23T14:07:37.004Z,100302.78
2022-08-23T14:10:38.428Z,100311.81
2022-08-23T14:13:40.060Z,100309.94
2022-08-23T14:16:41.571Z,100296.78
2022-08-23T14:23:12.505Z,100295.56
2022-08-23T14:26:17.677Z,100307.59
2022-08-23T14:29:23.717Z,100303.53
2022-08-23T14:32:25.616Z,100294.66
2022-08-23T14:35:27.230Z,100290.03
2022-08-23T14:38:28.690Z,100298.72
2022-08-23T14:41:31.077Z,100303.97
2022-08-23T14:44:36.063Z,100300.72
2022-08-23T14:47:38.910Z,100303.78
2022-08-23T14:50:41.164Z,100296.00
2022-08-23T14:53:42.692Z,100289.41
2022-08-23T14:56:44.598Z,100299.78
2022-08-23T14:59:46.203Z,100291.72
2022-08-23T15:02:49.965Z,100301.59
2022-08-23T15:05:51.576Z,100284.53
2022-08-23T15:08:53.426Z,100295.06
2022-08-23T15:15:21.733Z,100295.50
2022-08-23T15:18:24.488Z,100292.44
2022-08-23T15:21:27.038Z,100283.22
2022-08-23T15:24:29.058Z,100284.94
2022-08-23T15:27:31.208Z,100283.47
2022-08-23T15:30:33.400Z,100292.81
2022-08-23T15:33:35.128Z,100279.81
2022-08-23T15:36:41.315Z,100278.63
2022-08-23T15:39:42.927Z,100279.66
2022-08-23T15:42:44.378Z,100280.84
2022-08-23T15:45:46.111Z,100276.97
2022-08-23T15:49:05.096Z,100283.31
2022-08-23T15:52:06.588Z,100273.59
2022-08-23T15:55:08.416Z,100279.06
2022-08-23T15:58:16.089Z,100274.66
2022-08-23T16:01:19.847Z,100278.44
2022-08-23T16:04:24.241Z,100270.22
2022-08-23T16:07:25.749Z,100274.59
2022-08-23T16:10:28.359Z,100275.25
2022-08-23T16:13:29.970Z,100266.81
2022-08-23T16:16:36.435Z,100271.44
2022-08-23T16:19:37.962Z,100270.19
2022-08-23T16:22:39.748Z,100272.31
2022-08-23T16:25:41.987Z,100267.66
2022-08-23T16:28:44.973Z,100266.22
2022-08-23T16:31:47.094Z,100274.81
2022-08-23T16:34:48.570Z,100268.88
2022-08-23T16:37:50.234Z,100265.09
2022-08-23T16:40:51.785Z,100265.91
2022-08-23T16:43:53.207Z,100268.78
2022-08-23T16:46:55.211Z,100265.59
2022-08-23T16:49:56.705Z,100269.88
2022-08-23T16:52:58.622Z,100270.25
2022-08-23T16:56:00.497Z,100278.22
2022-08-23T16:59:03.914Z,100279.25
2022-08-23T17:02:10.900Z,100274.53
2022-08-23T17:05:15.991Z,100274.94
2022-08-23T17:08:17.582Z,100278.66
2022-08-23T17:11:19.474Z,100273.53
2022-08-23T17:14:21.621Z,100277.66
2022-08-23T17:17:24.097Z,100280.38
2022-08-23T17:20:28.992Z,100282.25
2022-08-23T17:23:30.476Z,100279.84
2022-08-23T17:26:32.042Z,100287.25
2022-08-23T17:29:37.499Z,100283.47
2022-08-23T17:32:39.174Z,100286.56
2022-08-23T17:35:40.609Z,100280.09
2022-08-23T17:38:42.044Z,100288.81
2022-08-23T17:41:45.510Z,100295.44
2022-08-23T17:44:47.234Z,100292.63
2022-08-23T17:47:48.779Z,100298.84
2022-08-23T17:50:50.230Z,100304.41
2022-08-23T17:53:51.645Z,100304.53
2022-08-23T17:56:53.354Z,100308.19
2022-08-23T17:59:54.847Z,100309.50
2022-08-23T18:02:56.327Z,100312.69
2022-08-23T18:05:58.695Z,100317.28
2022-08-23T18:09:02.694Z,100320.78
2022-08-23T18:12:04.396Z,100317.72
2022-08-23T18:15:06.637Z,100318.84
2022-08-23T18:18:08.090Z,100318.25
2022-08-23T18:21:12.595Z,100320.34
2022-08-23T18:24:14.071Z,100325.28
2022-08-23T18:27:34.178Z,100327.31
2022-08-23T18:30:39.199Z,100337.31
2022-08-23T18:33:46.840Z,100340.31
2022-08-23T18:36:48.862Z,100340.69
2022-08-23T18:39:50.463Z,100352.72
2022-08-23T18:42:52.068Z,100359.72
2022-08-23T18:45:56.023Z,100365.34
2022-08-23T18:48:57.538Z,100361.28
2022-08-23T18:51:59.311Z,100365.69
2022-08-23T18:55:00.902Z,100373.50
2022-08-23T18:58:03.523Z,100374.56
2022-08-23T19:01:25.024Z,100379.97
2022-08-23T19:04:26.714Z,100388.22
2022-08-23T19:07:28.214Z,100388.38
2022-08-23T19:10:29.996Z,100397.69
2022-08-23T19:13:33.036Z,100397.16
2022-08-23T19:16:36.862Z,100402.06
2022-08-23T19:19:38.534Z,100402.88
2022-08-23T19:22:40.398Z,100402.34
2022-08-23T19:25:45.238Z,100404.34
2022-08-23T19:28:47.305Z,100408.56
2022-08-23T19:31:50.239Z,100415.13
2022-08-23T19:34:51.778Z,100405.56
2022-08-23T19:37:53.236Z,100409.56
2022-08-23T19:40:56.145Z,100422.91
2022-08-23T19:43:58.290Z,100412.03
2022-08-23T19:47:00.121Z,100411.84
2022-08-23T19:50:01.642Z,100415.59
2022-08-23T19:53:04.115Z,100420.84
2022-08-23T19:56:07.058Z,100417.69
2022-08-23T19:59:12.164Z,100421.69
2022-08-23T20:02:14.253Z,100423.38
2022-08-23T20:05:16.828Z,100417.78
2022-08-23T20:08:18.889Z,100424.03
2022-08-23T20:11:20.426Z,100433.16
2022-08-23T20:14:24.424Z,100437.78
2022-08-23T20:17:26.855Z,100442.25
2022-08-23T20:20:28.313Z,100447.44
2022-08-23T20:23:48.066Z,100450.47
2022-08-23T20:26:50.422Z,100451.16
2022-08-23T20:29:53.018Z,100445.69
2022-08-23T20:32:54.816Z,100451.09
2022-08-23T20:35:56.251Z,100451.81
2022-08-23T20:39:00.110Z,100457.31
2022-08-23T20:42:01.564Z,100456.59
2022-08-23T20:45:03.369Z,100450.81
2022-08-23T20:48:04.970Z,100451.41
2022-08-23T20:51:10.573Z,100449.88
2022-08-23T20:54:12.983Z,100452.34
2022-08-23T20:57:14.459Z,100450.41
2022-08-23T21:00:16.282Z,100459.09
2022-08-23T21:03:18.537Z,100456.88
2022-08-23T21:06:23.418Z,100461.16
2022-08-23T21:09:29.155Z,100465.28
2022-08-23T21:12:31.128Z,100468.16
2022-08-23T21:15:32.668Z,100475.84
2022-08-23T21:18:34.460Z,100466.72
2022-08-23T21:21:37.762Z,100466.06
2022-08-23T21:24:39.238Z,100469.03
2022-08-23T21:27:41.370Z,100469.50
2022-08-23T21:30:42.974Z,100474.19
2022-08-23T21:33:45.026Z,100472.34
2022-08-23T21:36:46.537Z,100473.03
2022-08-23T21:39:48.005Z,100471.03
2022-08-23T21:42:49.510Z,100470.75
2022-08-23T21:45:52.020Z,100471.34
2022-08-23T21:48:53.603Z,100473.63
2022-08-23T21:51:55.057Z,100475.94
2022-08-23T21:54:56.586Z,100480.22
2022-08-23T21:57:59.124Z,100477.13
2022-08-23T22:01:00.555Z,100472.31
2022-08-23T22:04:07.368Z,100463.78
2022-08-23T22:07:08.798Z,100467.78
2022-08-23T22:10:10.688Z,100476.31
2022-08-23T22:13:12.442Z,100469.38
2022-08-23T22:16:13.907Z,100471.78
2022-08-23T22:19:16.483Z,100469.09
2022-08-23T22:22:17.946Z,100470.63
2022-08-23T22:25:19.399Z,100470.09
2022-08-23T22:28:20.862Z,100471.06
2022-08-23T22:31:22.811Z,100461.97
2022-08-23T22:34:24.345Z,100469.94
2022-08-23T22:37:25.940Z,100462.97
2022-08-23T22:40:27.497Z,100460.28
2022-08-23T22:43:29.198Z,100456.84
2022-08-23T22:46:33.509Z,100454.75
2022-08-23T22:49:35.135Z,100456.88
2022-08-23T22:52:37.017Z,100463.00
2022-08-23T22:55:40.660Z,100463.28
2022-08-23T22:58:42.563Z,100465.84
2022-08-23T23:01:48.421Z,100464.44
2022-08-23T23:04:50.643Z,100465.13
2022-08-23T23:08:10.741Z,100465.00
2022-08-23T23:11:13.978Z,100472.63
2022-08-23T23:14:17.676Z,100469.91
2022-08-23T23:17:19.089Z,100468.38
2022-08-23T23:20:40.092Z,100464.94
2022-08-23T23:23:41.518Z,100466.34
2022-08-23T23:26:47.502Z,100464.34
2022-08-23T23:29:49.278Z,100460.97
2022-08-23T23:32:50.693Z,100470.56
2022-08-23T23:35:52.129Z,100470.56
2022-08-23T23:38:53.964Z,100475.25
2022-08-23T23:41:55.813Z,100469.31
2022-08-23T23:44:57.515Z,100476.28
2022-08-23T23:47:59.450Z,100476.09
2022-08-23T23:51:00.905Z,100482.50
2022-08-23T23:54:02.438Z,100474.13
2022-08-23T23:57:05.722Z,100481.06
